Time;durP1;ratioP1;P1;durP2;ratioP2;P2;SDS_P1;SDS_P2;PMS_P1;PMS_P2;Temp;Humidity;BMP_temperature;BMP_pressure;BME280_temperature;BME280_humidity;BME280_pressure;Samples;Min_cycle;Max_cycle;Signal;HPM_P1;HPM_P2
2024/02/18 07:18:57;;;;;;;20.70;11.10;;;;;;;;;;2085339;28;20560;-69
2024/02/18 07:32:14;;;;;;;14.80;9.43;;;;;;;4.52;100.00;98030.09;2082647;28;20558;-70
2024/02/18 07:35:35;;;;;;;12.82;8.90;;;;;;;4.77;98.64;98037.91;2090001;27;20565;-71
2024/02/18 07:38:45;;;;;;;14.98;9.48;;;;;;;5.05;97.81;98044.81;2083085;27;20559;-69
2024/02/18 07:42:03;;;;;;;20.88;10.13;;;;;;;5.08;97.02;98043.97;2082422;28;21083;-69
2024/02/18 07:45:28;;;;;;;20.50;9.65;;;;;;;5.21;96.50;98044.81;2083291;28;20571;-69
2024/02/18 07:48:57;;;;;;;19.73;11.10;;;;;;;5.30;95.62;98059.47;2085068;28;20555;-69
2024/02/18 07:52:40;;;;;;;17.70;9.73;;;;;;;5.05;96.49;98044.81;2089969;27;20923;-71
2024/02/18 07:55:45;;;;;;;17.58;9.65;;;;;;;5.20;96.98;98030.97;2085403;28;20563;-64
2024/02/18 07:56:48;;;;;;;17.27;10.20;;;;;;;5.34;96.31;98046.50;2078651;28;20208;-64
2024/02/18 07:59:38;;;;;;;17.52;10.68;;;;;;;5.55;95.56;98034.41;2099871;27;20566;-62
2024/02/18 08:00:41;;;;;;;21.10;10.50;;;;;;;5.51;95.53;98040.44;2092884;28;20295;-62
2024/02/18 08:01:44;;;;;;;24.52;10.60;;;;;;;5.77;94.50;98042.13;2090133;28;20197;-62
2024/02/18 08:02:47;;;;;;;16.20;10.27;;;;;;;5.87;94.25;98034.28;2080874;28;20227;-62
2024/02/18 08:03:48;;;;;;;18.10;9.73;;;;;;;6.03;93.54;98045.50;2081928;28;20249;-62
2024/02/18 08:04:50;;;;;;;13.93;9.05;;;;;;;6.08;93.36;98023.88;2078422;28;20214;-64
2024/02/18 08:07:04;;;;;;;19.40;10.23;;;;;;;6.33;92.30;98040.16;2099435;27;20559;-62
2024/02/18 08:08:06;;;;;;;15.60;9.70;;;;;;;6.51;91.44;98034.00;2093105;28;20205;-65
2024/02/18 08:09:08;;;;;;;21.50;9.98;;;;;;;6.81;90.79;98032.09;2088119;28;20202;-62
2024/02/18 08:10:10;;;;;;;17.88;8.73;;;;;;;6.61;90.96;98029.63;2093046;28;20195;-63
2024/02/18 08:11:11;;;;;;;19.20;9.15;;;;;;;6.75;90.12;98037.31;2094672;28;20699;-64
2024/02/18 08:12:13;;;;;;;14.50;8.90;;;;;;;6.72;89.91;98029.53;2092914;28;20226;-64
2024/02/18 08:13:15;;;;;;;13.75;8.18;;;;;;;6.73;90.23;98032.13;2088424;28;20200;-64
2024/02/18 08:14:16;;;;;;;13.63;8.45;;;;;;;6.95;89.72;98032.81;2089233;28;20222;-64
2024/02/18 08:15:18;;;;;;;13.35;7.65;;;;;;;6.92;89.20;98027.66;2090107;28;20246;-64
2024/02/18 08:16:19;;;;;;;12.75;7.55;;;;;;;7.11;88.85;98025.78;2086389;28;20224;-64
2024/02/18 08:17:21;;;;;;;10.90;7.53;;;;;;;7.46;88.15;98040.16;2086701;28;20224;-64
2024/02/18 08:18:24;;;;;;;14.52;8.50;;;;;;;7.92;86.48;98030.13;2088796;28;20295;-64
2024/02/18 08:19:25;;;;;;;15.45;8.13;;;;;;;8.30;84.49;98034.88;2088127;28;20225;-64
2024/02/18 08:20:27;;;;;;;20.92;11.10;;;;;;;8.93;82.40;98037.47;2089623;28;20279;-64
2024/02/18 08:21:29;;;;;;;34.88;14.85;;;;;;;9.35;80.34;98039.38;2091149;28;20196;-64
2024/02/18 08:22:31;;;;;;;35.08;16.95;;;;;;;9.75;78.76;98041.25;2085952;28;20908;-65
2024/02/18 08:23:32;;;;;;;29.33;15.27;;;;;;;9.83;77.82;98036.75;2090152;28;20192;-65
2024/02/18 08:24:34;;;;;;;21.33;11.85;;;;;;;10.05;77.65;98042.38;2086471;28;20245;-65
2024/02/18 08:25:35;;;;;;;39.53;17.73;;;;;;;10.44;75.97;98039.00;2088835;28;20203;-65
2024/02/18 08:26:37;;;;;;;17.02;8.93;;;;;;;10.39;75.53;98031.28;2090149;28;20235;-64
2024/02/18 08:27:38;;;;;;;18.92;9.15;;;;;;;10.98;73.79;98029.06;2089303;28;20318;-65
2024/02/18 08:28:40;;;;;;;17.45;9.90;;;;;;;11.24;73.09;98031.06;2090766;28;20202;-65
2024/02/18 08:29:42;;;;;;;19.52;11.02;;;;;;;11.62;72.01;98029.19;2090742;28;20197;-65
2024/02/18 08:30:44;;;;;;;20.20;10.32;;;;;;;11.47;71.66;98025.22;2090267;28;20340;-64
2024/02/18 08:31:45;;;;;;;19.35;8.95;;;;;;;12.03;70.45;98023.75;2089095;28;20241;-64
2024/02/18 08:32:47;;;;;;;11.05;7.00;;;;;;;11.93;70.44;98025.72;2086134;28;20311;-64
2024/02/18 08:33:49;;;;;;;19.00;11.30;;;;;;;11.56;71.43;98000.56;2089872;28;20196;-65
2024/02/18 08:34:51;;;;;;;22.75;10.02;;;;;;;11.63;71.11;98022.19;2089778;28;20207;-65
2024/02/18 08:35:53;;;;;;;19.77;9.43;;;;;;;11.73;71.17;98016.69;2090535;28;20223;-65
2024/02/18 08:36:57;;;;;;;24.23;14.00;;;;;;;11.57;71.14;97992.69;2084881;28;20188;-72
2024/02/18 08:37:59;;;;;;;14.70;8.77;;;;;;;11.99;70.93;98014.25;2090667;28;20276;-72
2024/02/18 08:39:00;;;;;;;17.42;8.55;;;;;;;11.74;70.89;98009.69;2094114;28;20196;-72
2024/02/18 08:40:02;;;;;;;12.35;6.80;;;;;;;11.42;71.59;98017.47;2094356;28;20279;-73
2024/02/18 08:41:05;;;;;;;20.83;11.43;;;;;;;11.66;71.35;98007.28;2089398;28;20709;-72
2024/02/18 08:42:07;;;;;;;13.80;8.57;;;;;;;11.76;71.19;98013.13;2084277;28;20204;-72
2024/02/18 08:43:08;;;;;;;15.07;6.82;;;;;;;11.47;71.67;98006.06;2086407;28;20199;-72
2024/02/18 08:44:12;;;;;;;14.45;7.38;;;;;;;11.62;71.83;98004.78;2087371;28;20192;-72
2024/02/18 08:45:13;;;;;;;18.20;9.23;;;;;;;11.45;72.53;98000.84;2086484;28;20750;-72
2024/02/18 08:46:15;;;;;;;18.63;12.32;;;;;;;11.39;72.57;98007.13;2086571;28;20211;-72
2024/02/18 08:47:16;;;;;;;16.88;12.02;;;;;;;11.55;72.71;97996.25;2082387;28;20641;-72
2024/02/18 08:48:18;;;;;;;16.52;9.68;;;;;;;11.57;72.40;98008.38;2091078;28;20667;-72
2024/02/18 08:49:19;;;;;;;11.00;8.38;;;;;;;11.69;72.13;97999.31;2091408;28;20195;-72
2024/02/18 08:50:21;;;;;;;12.32;7.90;;;;;;;11.75;71.48;97999.16;2090540;28;20208;-72
2024/02/18 08:51:22;;;;;;;13.32;7.65;;;;;;;12.25;70.75;98000.38;2087536;28;20211;-72
2024/02/18 08:52:24;;;;;;;17.45;8.70;;;;;;;12.53;69.83;98010.91;2088021;28;20231;-72
2024/02/18 08:53:26;;;;;;;12.98;7.68;;;;;;;12.37;69.85;98005.28;2094088;28;20200;-72
2024/02/18 08:54:28;;;;;;;12.23;7.55;;;;;;;12.40;69.63;97997.34;2093126;28;20195;-72
2024/02/18 08:55:29;;;;;;;18.70;8.25;;;;;;;11.88;70.76;98004.06;2090033;28;20724;-72
2024/02/18 08:56:31;;;;;;;11.90;7.53;;;;;;;11.47;72.71;98003.44;2088285;28;20207;-72
2024/02/18 08:57:33;;;;;;;15.70;8.50;;;;;;;11.19;73.01;98001.56;2083214;28;20608;-72
2024/02/18 08:58:34;;;;;;;16.10;8.85;;;;;;;10.75;74.14;97989.56;2088227;28;20189;-71
2024/02/18 08:59:36;;;;;;;17.63;10.05;;;;;;;10.58;75.43;98000.38;2087575;28;20807;-72
2024/02/18 09:00:37;;;;;;;12.13;8.70;;;;;;;10.29;76.38;97994.03;2087762;28;20196;-71
2024/02/18 09:01:39;;;;;;;16.13;9.10;;;;;;;10.26;76.97;97995.88;2090795;28;20204;-71
2024/02/18 09:02:40;;;;;;;16.08;8.95;;;;;;;10.30;77.40;98003.56;2086996;28;20235;-71
2024/02/18 09:03:42;;;;;;;14.10;7.32;;;;;;;10.30;77.22;97989.69;2088961;28;20196;-71
2024/02/18 09:04:44;;;;;;;14.00;8.50;;;;;;;10.05;77.90;97971.06;2093395;28;20794;-71
2024/02/18 09:05:46;;;;;;;14.75;8.98;;;;;;;9.95;78.52;97986.06;2093561;28;20200;-72
2024/02/18 09:06:48;;;;;;;18.55;11.93;;;;;;;9.69;79.33;97989.19;2089484;28;20524;-71
2024/02/18 09:07:50;;;;;;;15.80;9.95;;;;;;;9.71;80.42;97992.63;2088501;28;20232;-72
2024/02/18 09:08:51;;;;;;;23.52;12.82;;;;;;;9.63;80.28;97977.13;2089690;28;20286;-69
2024/02/18 09:09:53;;;;;;;38.58;24.05;;;;;;;9.58;81.10;97992.88;2089657;28;20203;-68
2024/02/18 09:10:55;;;;;;;18.20;9.30;;;;;;;9.27;80.96;97980.41;2088097;28;20201;-72
2024/02/18 09:11:57;;;;;;;23.25;13.98;;;;;;;9.06;82.03;97996.44;2091490;28;20849;-68
2024/02/18 09:13:01;;;;;;;20.10;10.80;;;;;;;8.92;82.69;97954.97;2092660;28;20292;-67
2024/02/18 09:14:03;;;;;;;16.17;8.52;;;;;;;8.89;82.58;97994.09;2088032;28;20200;-66
2024/02/18 09:15:05;;;;;;;16.95;10.13;;;;;;;8.83;82.35;97974.22;2089325;28;20454;-65
2024/02/18 09:16:06;;;;;;;17.75;11.05;;;;;;;8.82;82.82;97988.13;2091778;28;20200;-65
2024/02/18 09:17:08;;;;;;;18.23;9.52;;;;;;;8.80;83.61;97989.91;2088852;28;20238;-71
2024/02/18 09:18:09;;;;;;;14.98;9.23;;;;;;;8.53;83.70;97942.56;2085845;28;20651;-68
2024/02/18 09:19:11;;;;;;;15.15;9.38;;;;;;;8.61;84.17;97968.53;2083920;28;20193;-67
2024/02/18 09:20:13;;;;;;;16.15;9.15;;;;;;;8.75;84.19;97989.13;2084690;28;20662;-72
2024/02/18 09:21:15;;;;;;;21.90;12.80;;;;;;;8.85;83.98;97968.97;2084258;28;20196;-66
2024/02/18 09:22:16;;;;;;;23.42;10.40;;;;;;;9.03;83.60;97980.84;2080311;28;20560;-68
2024/02/18 09:23:18;;;;;;;17.00;10.70;;;;;;;9.11;82.91;97978.97;2085037;28;20220;-68
2024/02/18 09:24:20;;;;;;;15.48;9.85;;;;;;;9.01;83.34;97977.41;2085306;28;20288;-66
2024/02/18 09:25:22;;;;;;;16.67;9.48;;;;;;;8.93;83.20;97975.78;2086035;28;20685;-70
2024/02/18 09:26:23;;;;;;;17.75;9.23;;;;;;;9.01;82.92;97969.59;2083983;28;20707;-67
2024/02/18 09:27:25;;;;;;;16.50;8.75;;;;;;;9.18;82.72;97977.97;2083490;28;20286;-66
2024/02/18 09:28:26;;;;;;;17.83;9.82;;;;;;;9.13;82.50;97974.59;2084225;28;20249;-69
2024/02/18 09:29:30;;;;;;;12.90;8.50;;;;;;;9.20;82.45;97980.56;2083960;28;20193;-70
2024/02/18 09:30:32;;;;;;;16.35;10.00;;;;;;;9.29;82.48;97964.75;2084246;28;20189;-69
2024/02/18 09:31:35;;;;;;;13.02;9.02;;;;;;;9.37;81.86;97972.41;2085747;28;20208;-70
2024/02/18 09:32:37;;;;;;;17.35;9.63;;;;;;;9.39;82.24;97974.09;2084207;28;20229;-70
2024/02/18 09:33:41;;;;;;;16.63;8.88;;;;;;;9.32;81.06;97960.34;2083597;28;20258;-70
2024/02/18 09:34:43;;;;;;;17.60;9.70;;;;;;;9.38;82.08;97968.94;2084349;28;20839;-70
2024/02/18 09:35:45;;;;;;;16.13;10.20;;;;;;;9.48;82.22;97967.84;2084150;28;20343;-69
2024/02/18 09:36:47;;;;;;;14.77;8.77;;;;;;;9.40;81.33;97967.16;2083912;28;20227;-70
2024/02/18 09:37:48;;;;;;;16.23;8.73;;;;;;;9.47;80.98;97964.41;2082830;28;20225;-69
2024/02/18 09:38:51;;;;;;;14.35;8.57;;;;;;;9.36;81.19;97973.28;2084132;28;20196;-69
2024/02/18 09:39:53;;;;;;;20.95;8.85;;;;;;;9.44;80.38;97963.59;2084497;28;20192;-69
2024/02/18 09:40:54;;;;;;;16.83;9.05;;;;;;;9.32;79.73;97955.13;2084343;28;20201;-70
2024/02/18 09:41:58;;;;;;;15.18;9.15;;;;;;;9.50;80.23;97960.88;2084256;28;20193;-70
2024/02/18 09:42:59;;;;;;;16.45;8.25;;;;;;;9.36;79.97;97947.22;2088360;28;20224;-66
2024/02/18 09:44:05;;;;;;;16.00;8.18;;;;;;;9.67;81.98;97954.47;2091089;28;20343;-69
2024/02/18 09:45:11;;;;;;;12.95;8.50;;;;;;;9.89;79.57;97960.09;2091002;28;20671;-68
2024/02/18 09:46:13;;;;;;;17.25;7.60;;;;;;;9.99;77.76;97960.75;2090393;28;20196;-68
2024/02/18 09:47:17;;;;;;;17.02;8.77;;;;;;;10.22;77.72;97950.69;2088235;28;20639;-70
2024/02/18 09:48:21;;;;;;;15.07;7.18;;;;;;;10.27;76.42;97961.88;2092297;28;20199;-69
2024/02/18 09:49:26;;;;;;;14.55;8.07;;;;;;;10.20;76.82;97955.06;2090372;28;20654;-68
2024/02/18 09:50:31;;;;;;;19.23;7.72;;;;;;;10.32;76.34;97948.72;2089772;28;20253;-71
2024/02/18 09:51:35;;;;;;;14.60;8.43;;;;;;;10.19;75.97;97937.69;2091106;28;20721;-72
2024/02/18 09:52:44;;;;;;;14.80;7.85;;;;;;;10.51;76.11;97941.34;2088212;28;20231;-70
2024/02/18 09:53:46;;;;;;;12.18;7.82;;;;;;;10.88;74.68;97944.81;2088914;28;20565;-71
2024/02/18 09:54:48;;;;;;;15.38;7.35;;;;;;;11.30;73.24;97938.50;2090450;28;20287;-70
2024/02/18 09:55:50;;;;;;;19.55;8.00;;;;;;;11.26;73.36;97937.72;2094867;28;20768;-70
2024/02/18 09:56:52;;;;;;;13.43;7.60;;;;;;;11.40;72.26;97935.59;2092247;28;20757;-71
2024/02/18 09:57:54;;;;;;;10.70;6.47;;;;;;;11.02;72.45;97932.25;2090470;28;20228;-70
2024/02/18 09:58:59;;;;;;;12.02;6.40;;;;;;;10.97;71.79;97943.72;2092899;28;20192;-71
2024/02/18 10:00:03;;;;;;;15.35;7.20;;;;;;;10.95;71.31;97915.00;2092896;28;20249;-70
2024/02/18 10:01:05;;;;;;;11.50;6.60;;;;;;;11.10;71.36;97930.28;2092641;28;20200;-70
2024/02/18 10:02:11;;;;;;;18.95;9.35;;;;;;;10.86;70.51;97930.94;2090349;28;20204;-71
2024/02/18 10:03:14;;;;;;;16.17;7.60;;;;;;;11.00;70.18;97933.19;2093580;28;20263;-71
2024/02/18 10:04:18;;;;;;;11.65;6.85;;;;;;;11.14;70.57;97919.78;2088207;28;20228;-71
2024/02/18 10:05:27;;;;;;;11.77;6.70;;;;;;;11.50;68.99;97932.72;2091200;28;20204;-72
2024/02/18 10:06:29;;;;;;;9.77;5.95;;;;;;;11.21;67.97;97905.59;2095968;28;20880;-71
2024/02/18 10:07:33;;;;;;;13.02;6.28;;;;;;;10.65;68.59;97875.69;2089993;28;20227;-71
2024/02/18 10:08:54;;;;;;;10.30;6.22;;;;;;;10.87;69.27;97937.84;2089867;28;20231;-71
2024/02/18 10:09:57;;;;;;;9.95;5.20;;;;;;;10.86;68.83;97921.34;2092519;28;20621;-69
2024/02/18 10:11:00;;;;;;;14.25;6.22;;;;;;;10.61;69.26;97921.09;2094834;28;20218;-70
2024/02/18 10:12:02;;;;;;;12.85;6.25;;;;;;;10.88;68.70;97929.13;2095379;28;20199;-70
2024/02/18 10:13:07;;;;;;;11.00;6.18;;;;;;;10.95;68.97;97926.31;2094236;28;20292;-70
2024/02/18 10:14:08;;;;;;;8.13;5.60;;;;;;;11.05;68.01;97921.72;2088636;28;20192;-70
2024/02/18 10:15:10;;;;;;;11.57;5.68;;;;;;;10.97;67.57;97908.00;2090648;28;20185;-70
2024/02/18 10:16:12;;;;;;;14.13;5.45;;;;;;;10.87;66.87;97909.09;2083989;28;20250;-70
2024/02/18 10:17:19;;;;;;;8.38;5.18;;;;;;;11.02;67.92;97913.97;2091349;28;20196;-69
2024/02/18 10:18:21;;;;;;;9.48;5.65;;;;;;;11.08;68.25;97913.81;2095773;28;20199;-70
2024/02/18 10:19:24;;;;;;;14.00;7.10;;;;;;;11.03;67.41;97910.44;2092270;28;20335;-70
2024/02/18 10:20:27;;;;;;;9.70;5.60;;;;;;;11.04;67.63;97917.38;2092118;28;20199;-70
2024/02/18 10:21:29;;;;;;;11.20;6.47;;;;;;;10.93;67.70;97909.84;2091179;28;20192;-69
2024/02/18 10:22:30;;;;;;;11.73;5.38;;;;;;;10.97;67.75;97908.00;2092920;28;20228;-70
2024/02/18 10:23:32;;;;;;;10.23;6.07;;;;;;;11.18;67.74;97910.94;2091693;28;20201;-70
2024/02/18 10:24:34;;;;;;;15.93;5.72;;;;;;;11.07;67.21;97901.63;2094264;28;20232;-69
2024/02/18 10:25:35;;;;;;;8.88;5.10;;;;;;;11.05;67.50;97907.81;2088541;28;20197;-70
2024/02/18 10:26:38;;;;;;;8.57;5.53;;;;;;;11.04;67.53;97911.31;2088654;28;20721;-70
2024/02/18 10:27:40;;;;;;;11.90;4.97;;;;;;;10.86;67.60;97907.41;2091513;28;20612;-70
2024/02/18 10:28:41;;;;;;;8.60;5.05;;;;;;;10.69;68.11;97900.88;2093835;28;20674;-70
2024/02/18 10:29:48;;;;;;;10.13;5.10;;;;;;;10.73;67.29;97914.72;2091924;28;20227;-71
2024/02/18 10:30:50;;;;;;;10.15;5.55;;;;;;;10.84;68.04;97902.22;2092035;28;20203;-66
2024/02/18 10:31:51;;;;;;;15.75;5.03;;;;;;;10.81;67.88;97901.47;2091943;28;20243;-65
2024/02/18 10:32:53;;;;;;;9.85;4.95;;;;;;;10.64;68.33;97900.13;2090559;28;20228;-65
2024/02/18 10:33:55;;;;;;;10.63;5.70;;;;;;;10.64;68.01;97900.13;2092417;28;20200;-65
2024/02/18 10:34:57;;;;;;;8.27;5.40;;;;;;;10.49;68.19;97883.06;2091748;28;20327;-65
2024/02/18 10:36:08;;;;;;;10.68;5.65;;;;;;;10.58;68.28;97895.91;2092635;28;20235;-65
2024/02/18 10:37:23;;;;;;;8.25;5.05;;;;;;;10.65;69.17;97898.38;2090867;28;20253;-65
2024/02/18 10:38:25;;;;;;;9.02;5.25;;;;;;;10.64;69.05;97894.91;2090347;28;20200;-65
2024/02/18 10:39:31;;;;;;;8.98;5.30;;;;;;;10.53;69.00;97897.78;2091623;28;20200;-66
2024/02/18 10:40:42;;;;;;;8.32;4.97;;;;;;;10.60;69.35;97903.69;2092172;28;20206;-65
2024/02/18 10:41:59;;;;;;;11.80;5.95;;;;;;;10.56;69.68;97902.06;2091665;28;20207;-63
2024/02/18 10:43:03;;;;;;;11.48;5.60;;;;;;;10.58;69.65;97897.66;2087016;28;20255;-63
2024/02/18 10:44:11;;;;;;;12.38;5.88;;;;;;;10.57;69.92;97888.94;2099082;28;20231;-64
2024/02/18 10:45:12;;;;;;;10.57;6.03;;;;;;;10.57;69.73;97882.88;2096849;28;20251;-64
2024/02/18 10:46:21;;;;;;;11.95;5.47;;;;;;;10.71;68.65;97887.75;2091118;28;20195;-64
2024/02/18 10:47:24;;;;;;;8.85;5.50;;;;;;;10.58;68.40;97889.84;2089266;28;20224;-66
2024/02/18 10:48:31;;;;;;;12.23;6.70;;;;;;;10.52;68.73;97885.59;2088879;28;20208;-61
2024/02/18 10:49:39;;;;;;;15.45;8.05;;;;;;;10.52;68.13;97897.81;2092483;28;20266;-65
2024/02/18 10:50:45;;;;;;;11.50;5.00;;;;;;;10.45;68.37;97884.06;2091609;28;20225;-64
2024/02/18 10:51:55;;;;;;;8.93;4.97;;;;;;;10.45;68.02;97892.72;2093766;28;20224;-64
2024/02/18 10:53:03;;;;;;;9.43;4.95;;;;;;;10.47;68.13;97889.22;2092363;28;20745;-64
2024/02/18 10:54:27;;;;;;;8.73;4.35;;;;;;;10.60;68.23;97890.63;2092291;28;20229;-69
2024/02/18 10:55:57;;;;;;;8.85;4.50;;;;;;;10.72;68.46;97886.88;2091214;28;20223;-69
2024/02/18 10:56:59;;;;;;;9.57;5.10;;;;;;;10.72;67.99;97881.66;2087932;28;20258;-69
2024/02/18 10:58:40;;;;;;;8.45;4.30;;;;;;;10.62;68.05;97878.41;2089436;28;20231;-70
2024/02/18 10:59:59;;;;;;;8.70;4.28;;;;;;;10.69;67.71;97876.47;2094048;28;20789;-70
2024/02/18 11:01:03;;;;;;;7.03;4.97;;;;;;;10.72;67.61;97877.25;2090354;28;20330;-69
2024/02/18 11:02:13;;;;;;;11.00;5.22;;;;;;;10.72;67.06;97860.75;2091375;28;20203;-70
2024/02/18 11:03:25;;;;;;;8.40;4.68;;;;;;;10.87;67.44;97872.53;2090203;28;20555;-69
2024/02/18 11:04:27;;;;;;;10.60;4.72;;;;;;;10.94;67.82;97871.47;2092879;28;20196;-69
2024/02/18 11:05:35;;;;;;;8.65;4.57;;;;;;;10.74;67.30;97862.41;2091649;28;20283;-64
2024/02/18 11:06:37;;;;;;;8.73;5.55;;;;;;;10.76;66.98;97850.16;2090530;28;20294;-63
2024/02/18 11:07:40;;;;;;;8.45;4.13;;;;;;;10.93;66.58;97883.69;2091396;28;20641;-64
2024/02/18 11:08:43;;;;;;;9.10;4.63;;;;;;;10.75;66.90;97868.50;2092703;28;20246;-63
2024/02/18 11:09:46;;;;;;;9.90;5.03;;;;;;;10.83;67.69;97866.56;2091645;28;20206;-63
2024/02/18 11:10:48;;;;;;;8.15;4.10;;;;;;;10.98;67.77;97864.41;2092120;28;20233;-63
2024/02/18 11:11:51;;;;;;;7.53;4.10;;;;;;;10.92;67.19;97853.22;2095397;28;20286;-64
2024/02/18 11:12:53;;;;;;;14.93;4.88;;;;;;;10.94;66.66;97863.63;2092840;28;20272;-63
2024/02/18 11:13:56;;;;;;;11.95;3.88;;;;;;;11.03;66.84;97855.53;2091889;28;20196;-64
2024/02/18 11:15:00;;;;;;;7.47;4.50;;;;;;;10.98;66.75;97854.81;2091605;28;20254;-63
2024/02/18 11:16:02;;;;;;;8.63;4.80;;;;;;;10.70;67.36;97850.31;2095577;28;20283;-64
2024/02/18 11:17:03;;;;;;;7.53;5.15;;;;;;;10.67;67.24;97849.56;2093465;28;20211;-63
2024/02/18 11:18:06;;;;;;;8.85;4.45;;;;;;;10.66;67.36;97850.44;2090672;28;20750;-64
2024/02/18 11:19:09;;;;;;;6.55;4.45;;;;;;;10.59;66.55;97834.09;2090750;28;20287;-63
2024/02/18 11:20:14;;;;;;;7.13;4.05;;;;;;;10.61;67.04;97842.72;2084140;28;20257;-63
2024/02/18 11:21:15;;;;;;;8.95;4.78;;;;;;;10.85;67.33;97841.22;2089218;28;20264;-63
2024/02/18 11:22:18;;;;;;;10.15;4.70;;;;;;;10.92;67.21;97837.56;2091581;28;20197;-63
2024/02/18 11:23:20;;;;;;;9.13;4.60;;;;;;;10.90;67.42;97841.94;2091178;28;20201;-64
2024/02/18 11:24:23;;;;;;;8.18;4.97;;;;;;;10.75;67.62;97826.69;2090620;28;20227;-63
2024/02/18 11:25:24;;;;;;;7.95;4.47;;;;;;;10.90;67.67;97839.34;2091709;28;20196;-64
2024/02/18 11:26:27;;;;;;;10.57;5.00;;;;;;;11.00;67.79;97821.66;2097526;28;20203;-64
2024/02/18 11:27:28;;;;;;;10.30;4.30;;;;;;;11.27;67.21;97835.72;2094863;28;20223;-64
2024/02/18 11:28:33;;;;;;;8.73;4.25;;;;;;;11.31;67.69;97826.00;2090274;28;20302;-64
2024/02/18 11:29:47;;;;;;;9.38;4.38;;;;;;;11.46;67.17;97823.88;2092507;28;20246;-65
2024/02/18 11:30:49;;;;;;;6.68;4.35;;;;;;;11.49;66.69;97808.06;2092243;28;20191;-64
2024/02/18 11:31:51;;;;;;;9.77;5.05;;;;;;;11.43;65.85;97812.59;2095361;28;20223;-64
2024/02/18 11:32:52;;;;;;;10.68;4.45;;;;;;;11.46;66.58;97810.78;2089619;28;20275;-64
2024/02/18 11:33:54;;;;;;;10.55;4.70;;;;;;;11.62;66.81;97808.56;2090127;28;20203;-64
2024/02/18 11:34:56;;;;;;;7.05;4.50;;;;;;;11.54;66.09;97790.47;2094001;28;20203;-64
2024/02/18 11:36:15;;;;;;;9.15;5.30;;;;;;;11.60;66.40;97799.00;2093911;28;20196;-64
2024/02/18 11:37:27;;;;;;;8.75;5.63;;;;;;;11.56;66.11;97797.38;2091260;28;20283;-64
2024/02/18 11:38:28;;;;;;;8.25;5.60;;;;;;;11.40;66.16;97803.97;2091680;28;20734;-64
2024/02/18 11:39:30;;;;;;;10.25;4.97;;;;;;;11.24;66.68;97799.19;2095577;28;20202;-64
2024/02/18 11:40:35;;;;;;;6.95;4.55;;;;;;;11.17;66.66;97779.34;2086864;28;20205;-64
2024/02/18 11:41:37;;;;;;;9.50;5.20;;;;;;;11.40;66.91;97799.59;2096753;28;20195;-64
2024/02/18 11:42:39;;;;;;;11.40;4.80;;;;;;;11.45;66.94;97789.00;2089673;28;20224;-64
2024/02/18 11:43:41;;;;;;;6.47;5.20;;;;;;;11.36;66.40;97769.19;2091729;28;20214;-64
2024/02/18 11:44:44;;;;;;;6.80;4.47;;;;;;;11.24;66.63;97785.28;2091138;28;20204;-65
2024/02/18 11:45:49;;;;;;;6.80;4.40;;;;;;;11.26;66.74;97758.19;2092281;28;20250;-64
2024/02/18 11:46:50;;;;;;;8.32;4.65;;;;;;;11.30;67.41;97779.88;2091619;28;20188;-64
2024/02/18 11:47:55;;;;;;;10.23;5.80;;;;;;;11.39;66.99;97757.81;2089789;28;20726;-64
2024/02/18 11:48:58;;;;;;;11.05;5.07;;;;;;;11.34;67.13;97773.63;2091751;28;20825;-64
2024/02/18 11:50:00;;;;;;;7.30;4.53;;;;;;;11.25;67.38;97755.63;2091538;28;20201;-64
2024/02/18 11:51:01;;;;;;;12.40;4.85;;;;;;;11.41;67.42;97761.22;2090514;28;20266;-64
2024/02/18 11:52:03;;;;;;;7.45;4.38;;;;;;;11.44;67.34;97759.38;2090542;28;20193;-64
2024/02/18 11:53:06;;;;;;;8.80;5.15;;;;;;;11.51;67.72;97767.88;2087764;28;20188;-65
2024/02/18 11:54:07;;;;;;;8.50;5.50;;;;;;;11.47;67.04;97766.28;2090168;28;20862;-64
2024/02/18 11:55:20;;;;;;;15.88;5.50;;;;;;;11.43;67.55;97760.28;2087527;28;20755;-64
2024/02/18 11:56:22;;;;;;;16.40;5.38;;;;;;;11.48;67.33;97761.88;2087521;28;20607;-64
2024/02/18 11:57:23;;;;;;;17.42;5.97;;;;;;;11.35;67.21;97753.56;2088630;28;20253;-65
2024/02/18 11:58:25;;;;;;;7.88;5.70;;;;;;;11.32;67.62;97749.28;2091126;28;20230;-64
2024/02/18 11:59:26;;;;;;;9.38;5.10;;;;;;;11.39;67.49;97760.44;2083647;28;20200;-64
2024/02/18 12:00:28;;;;;;;9.32;5.75;;;;;;;11.37;67.82;97750.00;2090294;28;20211;-65
2024/02/18 12:01:30;;;;;;;10.77;5.43;;;;;;;11.21;67.56;97759.19;2095010;28;20229;-64
2024/02/18 12:02:33;;;;;;;7.78;4.57;;;;;;;11.21;68.12;97749.63;2092794;28;20756;-64
2024/02/18 12:03:34;;;;;;;14.27;6.68;;;;;;;11.15;68.07;97741.06;2091664;28;20195;-63
2024/02/18 12:04:36;;;;;;;16.05;8.68;;;;;;;11.18;68.26;97736.63;2093015;28;20775;-65
2024/02/18 12:05:40;;;;;;;16.23;7.40;;;;;;;11.31;68.34;97744.09;2091404;28;20196;-65
2024/02/18 12:06:43;;;;;;;16.98;8.30;;;;;;;11.23;67.97;97747.78;2089840;28;21142;-65
2024/02/18 12:07:48;;;;;;;18.90;8.88;;;;;;;11.21;68.91;97735.66;2090091;28;20251;-65
2024/02/18 12:08:50;;;;;;;14.35;7.80;;;;;;;11.17;68.44;97741.91;2091973;28;20200;-64
2024/02/18 12:09:51;;;;;;;11.85;6.88;;;;;;;11.23;68.45;97729.50;2093260;28;20739;-64
2024/02/18 12:10:54;;;;;;;17.27;7.50;;;;;;;11.28;68.77;97738.06;2092133;28;20203;-64
2024/02/18 12:11:55;;;;;;;9.82;5.70;;;;;;;11.39;68.67;97745.59;2091331;28;20200;-64
2024/02/18 12:12:57;;;;;;;19.17;7.22;;;;;;;11.51;68.49;97740.88;2090256;28;20303;-64
2024/02/18 12:13:59;;;;;;;11.93;6.15;;;;;;;11.37;68.19;97742.16;2092254;28;20387;-64
2024/02/18 12:15:02;;;;;;;11.30;6.43;;;;;;;11.27;68.52;97738.09;2091550;28;20703;-64
2024/02/18 12:16:05;;;;;;;12.15;7.30;;;;;;;11.26;69.11;97731.16;2092831;28;20326;-64
2024/02/18 12:17:07;;;;;;;10.95;7.30;;;;;;;11.36;68.75;97736.97;2090187;28;20195;-64
2024/02/18 12:18:10;;;;;;;12.70;6.75;;;;;;;11.26;68.70;97729.41;2091617;28;20203;-64
2024/02/18 12:19:12;;;;;;;12.20;7.47;;;;;;;11.24;69.13;97733.81;2091367;28;20811;-65
2024/02/18 12:20:18;;;;;;;11.30;7.03;;;;;;;11.22;69.35;97727.81;2087787;28;20216;-64
2024/02/18 12:21:20;;;;;;;13.75;6.90;;;;;;;11.23;69.23;97736.50;2089420;28;20280;-65
2024/02/18 12:22:23;;;;;;;11.80;5.95;;;;;;;11.18;69.48;97733.16;2093853;28;20676;-64
2024/02/18 12:23:25;;;;;;;14.75;7.70;;;;;;;11.10;69.79;97731.63;2092934;28;20223;-64
2024/02/18 12:24:27;;;;;;;10.75;6.60;;;;;;;11.16;69.96;97729.72;2087986;28;20205;-65
2024/02/18 12:25:35;;;;;;;10.90;6.47;;;;;;;11.14;69.83;97727.16;2087669;28;20694;-64
2024/02/18 12:26:37;;;;;;;17.88;6.95;;;;;;;11.16;70.09;97721.88;2089283;28;20232;-64
2024/02/18 12:27:38;;;;;;;12.38;6.80;;;;;;;11.16;70.07;97725.38;2088420;28;20228;-64
2024/02/18 12:28:40;;;;;;;9.88;6.30;;;;;;;11.05;70.03;97724.81;2090185;28;20201;-64
2024/02/18 12:29:42;;;;;;;14.50;7.45;;;;;;;11.00;70.34;97711.88;2091571;28;20691;-64
2024/02/18 12:30:45;;;;;;;13.27;6.80;;;;;;;10.96;70.58;97697.19;2094006;28;20188;-64
2024/02/18 12:31:48;;;;;;;12.98;6.18;;;;;;;11.08;70.69;97716.88;2093334;28;20623;-65
2024/02/18 12:32:50;;;;;;;11.77;6.97;;;;;;;11.06;71.01;97711.72;2088932;28;20216;-64
2024/02/18 12:33:52;;;;;;;10.50;6.30;;;;;;;11.08;71.04;97709.91;2091221;28;20228;-64
2024/02/18 12:34:54;;;;;;;13.57;7.07;;;;;;;11.11;71.09;97716.81;2091887;28;20224;-64
2024/02/18 12:35:56;;;;;;;10.48;6.32;;;;;;;11.14;71.01;97708.88;2091009;28;20273;-64
2024/02/18 12:36:57;;;;;;;12.85;5.90;;;;;;;11.11;70.94;97709.81;2093305;28;20612;-64
2024/02/18 12:38:02;;;;;;;10.30;6.57;;;;;;;11.10;71.16;97704.63;2087157;28;20734;-64
2024/02/18 12:39:07;;;;;;;10.25;6.57;;;;;;;11.15;71.26;97707.09;2090324;28;20195;-64
2024/02/18 12:40:09;;;;;;;10.20;6.70;;;;;;;11.06;70.71;97698.63;2091751;28;20199;-64
2024/02/18 12:41:11;;;;;;;11.38;6.82;;;;;;;11.00;70.82;97703.19;2092179;28;20691;-64
2024/02/18 12:42:12;;;;;;;12.68;7.07;;;;;;;10.98;71.43;97698.00;2090080;28;20200;-63
2024/02/18 12:43:15;;;;;;;13.02;7.20;;;;;;;10.95;71.35;97696.31;2087672;28;20287;-63
2024/02/18 12:44:37;;;;;;;10.85;7.32;;;;;;;10.93;71.67;97689.44;2091485;28;20721;-63
2024/02/18 12:46:02;;;;;;;12.15;6.43;;;;;;;10.90;71.61;97685.16;2095214;28;20570;-63
2024/02/18 12:47:09;;;;;;;11.93;6.57;;;;;;;10.95;71.84;97698.94;2092069;28;20331;-63